Time;durP1;ratioP1;P1;durP2;ratioP2;P2;SDS_P1;SDS_P2;PMS_P1;PMS_P2;Temp;Humidity;BMP_temperature;BMP_pressure;BME280_temperature;BME280_humidity;BME280_pressure;Samples;Min_cycle;Max_cycle;Signal;HPM_P1;HPM_P2
2021/12/24 00:00:52;;;;;;;255.33;110.80;;;;;;;;;;4448939;32;20307;-56
2021/12/24 00:03:18;;;;;;;229.73;109.07;;;;;;;;;;4455887;32;20697;-55
2021/12/24 00:05:44;;;;;;;235.13;108.13;;;;;;;;;;4465570;32;20224;-56
2021/12/24 00:08:10;;;;;;;249.93;108.50;;;;;;;;;;4463239;32;20286;-56
2021/12/24 00:10:37;;;;;;;244.03;108.93;;;;;;;;;;4450291;32;20311;-56
2021/12/24 00:13:10;;;;;;;234.97;105.17;;;;;;;;;;4454940;32;20200;-55
2021/12/24 00:15:53;;;;;;;247.77;110.70;;;;;;;;;;4462605;32;20221;-56
2021/12/24 00:37:03;;;;;;;259.87;113.37;;;;;;;;;;4461879;32;20322;-55
2021/12/24 00:39:29;;;;;;;253.10;118.10;;;;;;;;;;4459179;32;20204;-55
2021/12/24 00:41:54;;;;;;;229.50;111.93;;;;;;;;;;4455390;32;20209;-55
2021/12/24 00:44:20;;;;;;;249.10;116.40;;;;;;;;;;4462398;32;20328;-55
2021/12/24 00:46:45;;;;;;;233.23;109.13;;;;;;;;;;4461843;32;20316;-55
2021/12/24 00:49:11;;;;;;;237.57;111.80;;;;;;;;;;4460073;32;20216;-55
2021/12/24 00:56:52;;;;;;;227.87;105.13;;;;;;;;;;4458652;32;20798;-54
2021/12/24 00:59:17;;;;;;;213.67;98.37;;;;;;;;;;4449456;32;20316;-55
2021/12/24 01:01:43;;;;;;;186.83;88.37;;;;;;;;;;4461703;32;20262;-55
2021/12/24 01:04:08;;;;;;;156.10;77.37;;;;;;;;;;4462924;32;20381;-55
2021/12/24 01:06:34;;;;;;;154.00;73.20;;;;;;;;;;4460260;32;20366;-55
2021/12/24 01:08:59;;;;;;;156.10;70.13;;;;;;;;;;4463475;32;20269;-55
2021/12/24 01:11:27;;;;;;;134.73;64.57;;;;;;;;;;4463396;32;20303;-55
2021/12/24 01:13:52;;;;;;;145.83;71.63;;;;;;;;;;4464591;32;20389;-57
2021/12/24 01:16:26;;;;;;;152.93;71.90;;;;;;;;;;4450664;32;20229;-56
2021/12/24 01:19:02;;;;;;;158.87;71.07;;;;;;;;;;4456642;32;20708;-57
2021/12/24 01:24:01;;;;;;;154.80;70.17;;;;;;;;;;4464929;32;20686;-54
2021/12/24 01:40:07;;;;;;;138.47;62.17;;;;;;;;;;4455833;32;20613;-56
2021/12/24 01:42:41;;;;;;;168.07;70.70;;;;;;;;;;4451641;32;20204;-56
2021/12/24 01:45:16;;;;;;;163.17;68.43;;;;;;;;;;4453725;32;20246;-56
2021/12/24 01:47:42;;;;;;;97.23;44.63;;;;;;;;;;4456469;32;20321;-57
2021/12/24 01:50:08;;;;;;;99.80;45.90;;;;;;;;;;4453131;32;20339;-57
2021/12/24 01:52:33;;;;;;;95.47;45.90;;;;;;;;;;4462274;32;20212;-58
2021/12/24 01:54:59;;;;;;;82.97;45.87;;;;;;;;;;4451103;32;20327;-57
2021/12/24 01:57:24;;;;;;;102.07;45.87;;;;;;;;;;4463483;32;20686;-57
2021/12/24 01:59:50;;;;;;;102.60;45.67;;;;;;;;;;4457426;32;20314;-55
2021/12/24 02:02:15;;;;;;;102.60;52.20;;;;;;;;;;4458116;32;20303;-54
2021/12/24 02:04:41;;;;;;;131.93;59.37;;;;;;;;;;4460378;32;20321;-54
2021/12/24 02:07:07;;;;;;;117.00;55.10;;;;;;;;;;4461031;32;20224;-55
2021/12/24 02:09:34;;;;;;;118.17;51.57;;;;;;;;;;4448608;32;20386;-54
2021/12/24 02:12:00;;;;;;;120.00;51.37;;;;;;;;;;4457481;32;20247;-53
2021/12/24 02:14:33;;;;;;;131.17;57.80;;;;;;;;;;4456617;32;20212;-55
2021/12/24 02:30:32;;;;;;;137.40;62.37;;;;;;;;;;4463634;32;20762;-54
2021/12/24 02:32:58;;;;;;;134.00;61.73;;;;;;;;;;4463123;32;20224;-55
2021/12/24 02:35:24;;;;;;;126.87;60.00;;;;;;;;;;4457416;32;20227;-54
2021/12/24 02:37:50;;;;;;;129.30;57.87;;;;;;;;;;4462125;32;20339;-53
2021/12/24 02:40:16;;;;;;;132.50;59.70;;;;;;;;;;4450622;32;20292;-55
2021/12/24 02:42:48;;;;;;;115.77;56.70;;;;;;;;;;4448013;32;20292;-55
2021/12/24 02:45:14;;;;;;;132.37;59.53;;;;;;;;;;4453988;32;20225;-55
2021/12/24 02:48:11;;;;;;;111.03;56.27;;;;;;;;;;4459871;32;20280;-54
2021/12/24 02:56:09;;;;;;;128.23;61.77;;;;;;;;;;4455092;32;20242;-55
2021/12/24 02:58:45;;;;;;;132.10;62.87;;;;;;;;;;4459610;32;20731;-55
2021/12/24 03:01:13;;;;;;;125.80;62.20;;;;;;;;;;4453692;32;20259;-55
2021/12/24 03:03:39;;;;;;;137.77;63.53;;;;;;;;;;4462760;32;20603;-55
2021/12/24 03:06:06;;;;;;;121.77;59.13;;;;;;;;;;4457129;32;20258;-56
2021/12/24 03:08:31;;;;;;;131.20;62.03;;;;;;;;;;4448975;32;20756;-55
2021/12/24 03:10:58;;;;;;;151.20;66.43;;;;;;;;;;4462444;32;20220;-54
2021/12/24 03:13:25;;;;;;;138.20;64.20;;;;;;;;;;4461795;32;20212;-54
2021/12/24 03:15:53;;;;;;;151.80;65.70;;;;;;;;;;4463146;32;20216;-55
2021/12/24 03:18:24;;;;;;;152.77;66.80;;;;;;;;;;4455968;32;20216;-57
2021/12/24 03:20:58;;;;;;;154.33;70.63;;;;;;;;;;4463160;32;20662;-55
2021/12/24 03:23:46;;;;;;;147.97;69.80;;;;;;;;;;4462167;32;20631;-56
2021/12/24 03:26:15;;;;;;;155.43;74.40;;;;;;;;;;4458000;32;20365;-56
2021/12/24 03:28:42;;;;;;;148.87;70.73;;;;;;;;;;4462325;32;20256;-55
2021/12/24 03:31:08;;;;;;;131.30;67.03;;;;;;;;;;4452448;32;20599;-55
2021/12/24 03:33:35;;;;;;;130.83;64.33;;;;;;;;;;4458544;32;20404;-56
2021/12/24 03:36:04;;;;;;;125.70;61.03;;;;;;;;;;4450188;32;20633;-57
2021/12/24 03:38:30;;;;;;;105.60;53.63;;;;;;;;;;4459975;32;20238;-55
2021/12/24 03:40:55;;;;;;;113.40;52.63;;;;;;;;;;4448031;32;20668;-54
2021/12/24 03:43:21;;;;;;;110.57;52.30;;;;;;;;;;4452797;32;20291;-56
2021/12/24 03:48:24;;;;;;;102.73;49.17;;;;;;;;;;4462122;32;20287;-56
2021/12/24 03:51:02;;;;;;;122.67;55.70;;;;;;;;;;4449346;32;20742;-56
2021/12/24 03:56:12;;;;;;;144.57;69.83;;;;;;;;;;4462647;32;20403;-56
2021/12/24 03:58:37;;;;;;;142.20;70.87;;;;;;;;;;4455656;32;20371;-57
2021/12/24 04:01:03;;;;;;;198.17;87.80;;;;;;;;;;4457635;32;20316;-55
2021/12/24 04:03:28;;;;;;;178.37;87.03;;;;;;;;;;4457116;32;20238;-56
2021/12/24 04:05:54;;;;;;;205.57;91.27;;;;;;;;;;4462546;32;20298;-55
2021/12/24 04:08:19;;;;;;;220.70;99.57;;;;;;;;;;4459166;32;20276;-56
2021/12/24 04:10:45;;;;;;;227.60;101.90;;;;;;;;;;4458695;32;20588;-56
2021/12/24 04:13:12;;;;;;;208.23;102.13;;;;;;;;;;4451876;32;20666;-56
2021/12/24 04:15:38;;;;;;;201.97;96.73;;;;;;;;;;4453981;32;20587;-57
2021/12/24 04:18:16;;;;;;;196.20;96.13;;;;;;;;;;4458503;32;20605;-55
2021/12/24 04:26:09;;;;;;;146.20;65.17;;;;;;;;;;4450671;32;20355;-55
2021/12/24 04:28:35;;;;;;;125.20;59.83;;;;;;;;;;4459126;32;20279;-56
2021/12/24 04:31:02;;;;;;;112.97;55.47;;;;;;;;;;4454968;32;20295;-58
2021/12/24 04:33:33;;;;;;;109.67;54.37;;;;;;;;;;4443968;32;20247;-56
2021/12/24 04:52:53;;;;;;;118.93;56.80;;;;;;;;;;4451653;32;20291;-56
2021/12/24 05:03:26;;;;;;;133.10;65.60;;;;;;;;;;4458562;32;20255;-56
2021/12/24 05:06:04;;;;;;;132.90;62.83;;;;;;;;;;4463865;32;20224;-55
2021/12/24 05:08:39;;;;;;;147.87;65.57;;;;;;;;;;4462535;32;20579;-55
2021/12/24 05:11:10;;;;;;;129.97;64.90;;;;;;;;;;4454649;32;20271;-56
2021/12/24 05:13:36;;;;;;;121.23;64.33;;;;;;;;;;4463077;32;20364;-57
2021/12/24 05:16:12;;;;;;;139.27;64.47;;;;;;;;;;4464481;32;20737;-56
2021/12/24 05:21:32;;;;;;;147.43;65.00;;;;;;;;;;4405048;32;20323;-56
2021/12/24 05:24:06;;;;;;;141.40;69.67;;;;;;;;;;4450027;32;20381;-57
2021/12/24 05:26:32;;;;;;;144.87;66.83;;;;;;;;;;4463493;32;20228;-56
2021/12/24 05:28:59;;;;;;;143.57;69.63;;;;;;;;;;4457900;32;20259;-56
2021/12/24 05:31:25;;;;;;;150.73;70.00;;;;;;;;;;4464196;32;20322;-55
2021/12/24 05:33:51;;;;;;;161.17;74.33;;;;;;;;;;4463406;32;20629;-55
2021/12/24 05:36:17;;;;;;;164.47;75.70;;;;;;;;;;4451276;32;20321;-55
2021/12/24 05:38:43;;;;;;;143.47;71.23;;;;;;;;;;4461235;32;20287;-55
2021/12/24 05:41:10;;;;;;;159.73;76.37;;;;;;;;;;4454689;32;20334;-55
2021/12/24 05:43:36;;;;;;;156.00;77.87;;;;;;;;;;4462539;32;20284;-55
2021/12/24 05:46:02;;;;;;;158.63;77.03;;;;;;;;;;4452883;32;20361;-55
2021/12/24 05:48:27;;;;;;;147.60;71.00;;;;;;;;;;4458116;32;20538;-56
2021/12/24 05:50:53;;;;;;;150.43;74.30;;;;;;;;;;4460543;32;20247;-55
2021/12/24 05:53:19;;;;;;;138.90;71.80;;;;;;;;;;4459740;32;20628;-56
2021/12/24 05:55:45;;;;;;;147.03;76.00;;;;;;;;;;4464323;32;20609;-54
2021/12/24 05:58:10;;;;;;;176.87;83.43;;;;;;;;;;4456474;32;20219;-55
2021/12/24 06:00:38;;;;;;;169.37;80.47;;;;;;;;;;4447898;32;20237;-54
2021/12/24 06:03:06;;;;;;;196.90;92.17;;;;;;;;;;4449383;32;20289;-54
2021/12/24 06:05:32;;;;;;;200.97;99.10;;;;;;;;;;4455319;32;20396;-56
2021/12/24 06:07:58;;;;;;;257.87;122.83;;;;;;;;;;4458821;32;20200;-55
2021/12/24 06:10:23;;;;;;;211.13;96.87;;;;;;;;;;4451241;32;20347;-56
2021/12/24 06:12:49;;;;;;;175.20;93.07;;;;;;;;;;4460549;32;20687;-55
2021/12/24 06:15:16;;;;;;;195.93;91.77;;;;;;;;;;4456230;32;20256;-55
2021/12/24 06:17:41;;;;;;;302.73;155.40;;;;;;;;;;4446479;32;20220;-56
2021/12/24 06:20:08;;;;;;;127.77;63.33;;;;;;;;;;4456914;32;20263;-56
2021/12/24 06:22:35;;;;;;;125.23;61.53;;;;;;;;;;4462094;32;20295;-56
2021/12/24 06:25:01;;;;;;;119.70;60.60;;;;;;;;;;4452385;32;20335;-56
2021/12/24 06:27:26;;;;;;;105.33;52.37;;;;;;;;;;4463019;32;20215;-56
2021/12/24 06:29:52;;;;;;;101.83;51.53;;;;;;;;;;4452799;32;20259;-56
2021/12/24 06:32:17;;;;;;;99.23;52.50;;;;;;;;;;4463140;32;20208;-55
2021/12/24 06:34:43;;;;;;;90.77;46.80;;;;;;;;;;4448729;32;20319;-56
2021/12/24 06:37:09;;;;;;;103.30;55.10;;;;;;;;;;4457912;32;20644;-58
2021/12/24 06:39:35;;;;;;;101.87;53.23;;;;;;;;;;4461803;32;20275;-56
2021/12/24 06:42:01;;;;;;;94.03;52.93;;;;;;;;;;4462048;32;20624;-56
2021/12/24 06:44:27;;;;;;;110.17;60.47;;;;;;;;;;4461600;32;20271;-57
2021/12/24 06:46:52;;;;;;;106.80;58.57;;;;;;;;;;4449201;32;20613;-56
2021/12/24 06:49:18;;;;;;;111.00;55.87;;;;;;;;;;4462559;32;20216;-56
2021/12/24 06:51:43;;;;;;;106.27;50.30;;;;;;;;;;4463428;32;20315;-56
2021/12/24 06:54:10;;;;;;;98.93;52.40;;;;;;;;;;4462588;32;21013;-57
2021/12/24 06:56:37;;;;;;;109.17;53.53;;;;;;;;;;4463271;32;20254;-56
2021/12/24 06:59:03;;;;;;;102.80;52.77;;;;;;;;;;4457723;32;20701;-56
2021/12/24 07:01:29;;;;;;;119.87;57.37;;;;;;;;;;4462366;32;20599;-55
2021/12/24 07:03:54;;;;;;;102.67;52.53;;;;;;;;;;4462863;32;20375;-56
2021/12/24 07:06:21;;;;;;;115.00;62.83;;;;;;;;;;4462021;32;20579;-56
2021/12/24 07:08:47;;;;;;;161.43;77.97;;;;;;;;;;4456668;32;20576;-55
2021/12/24 07:11:12;;;;;;;180.27;80.63;;;;;;;;;;4457662;32;20315;-55
2021/12/24 07:13:37;;;;;;;144.87;72.77;;;;;;;;;;4455189;32;20330;-54
2021/12/24 07:16:03;;;;;;;168.70;81.33;;;;;;;;;;4463317;32;20255;-54
2021/12/24 07:18:29;;;;;;;153.73;74.07;;;;;;;;;;4454004;32;20285;-55
2021/12/24 07:20:54;;;;;;;143.77;72.23;;;;;;;;;;4460052;32;20817;-56
2021/12/24 07:23:20;;;;;;;150.47;78.63;;;;;;;;;;4462990;32;20278;-56
2021/12/24 07:25:46;;;;;;;145.80;75.40;;;;;;;;;;4463524;32;20767;-55
2021/12/24 07:28:11;;;;;;;154.43;73.70;;;;;;;;;;4452440;32;20284;-56
2021/12/24 07:30:37;;;;;;;135.53;71.17;;;;;;;;;;4463319;32;20326;-56
2021/12/24 07:33:02;;;;;;;143.37;75.40;;;;;;;;;;4458467;32;20251;-55
2021/12/24 07:35:28;;;;;;;149.73;74.87;;;;;;;;;;4461102;32;20295;-54
2021/12/24 07:37:54;;;;;;;147.87;77.70;;;;;;;;;;4459521;32;20387;-55
2021/12/24 07:40:19;;;;;;;182.40;85.40;;;;;;;;;;4462714;32;20414;-55
2021/12/24 07:42:46;;;;;;;209.67;97.93;;;;;;;;;;4447801;32;20824;-55
2021/12/24 07:45:13;;;;;;;183.07;89.47;;;;;;;;;;4433582;32;20379;-55
2021/12/24 07:47:42;;;;;;;194.30;87.83;;;;;;;;;;4452822;32;20794;-55
2021/12/24 07:52:43;;;;;;;133.03;72.93;;;;;;;;;;4449011;32;20314;-55
2021/12/24 07:55:10;;;;;;;132.40;73.63;;;;;;;;;;4455702;32;20714;-56
2021/12/24 07:57:37;;;;;;;342.20;141.27;;;;;;;;;;4448825;32;20224;-55
2021/12/24 08:00:05;;;;;;;286.13;129.33;;;;;;;;;;4455850;32;20686;-54
2021/12/24 08:02:31;;;;;;;137.83;69.33;;;;;;;;;;4449622;32;20617;-56
2021/12/24 08:04:57;;;;;;;200.17;93.13;;;;;;;;;;4459928;32;20234;-54
2021/12/24 08:07:22;;;;;;;162.27;77.93;;;;;;;;;;4463022;32;20291;-54
2021/12/24 08:09:49;;;;;;;104.63;52.80;;;;;;;;;;4462721;32;20313;-55
2021/12/24 08:12:15;;;;;;;86.63;46.43;;;;;;;;;;4461228;32;20250;-55
2021/12/24 08:14:40;;;;;;;122.70;53.67;;;;;;;;;;4461888;32;20311;-53
2021/12/24 08:17:07;;;;;;;171.93;80.00;;;;;;;;;;4455596;32;20247;-55
2021/12/24 08:19:32;;;;;;;133.00;68.00;;;;;;;;;;4462101;32;20508;-55
2021/12/24 08:21:59;;;;;;;136.17;66.13;;;;;;;;;;4466512;32;20212;-54
2021/12/24 08:24:24;;;;;;;141.37;62.13;;;;;;;;;;4465689;32;20233;-56
2021/12/24 08:26:51;;;;;;;122.00;57.53;;;;;;;;;;4462666;32;20216;-55
2021/12/24 08:29:16;;;;;;;123.30;57.00;;;;;;;;;;4455986;32;20644;-55
2021/12/24 08:31:42;;;;;;;90.17;46.43;;;;;;;;;;4465528;32;20217;-56
2021/12/24 08:34:08;;;;;;;109.00;52.87;;;;;;;;;;4465822;32;20344;-56
2021/12/24 08:36:34;;;;;;;108.17;51.83;;;;;;;;;;4461203;32;20327;-57
2021/12/24 08:38:59;;;;;;;68.07;36.03;;;;;;;;;;4454524;32;20256;-56
2021/12/24 08:41:26;;;;;;;67.07;37.03;;;;;;;;;;4465779;32;20215;-57
2021/12/24 08:43:51;;;;;;;85.30;42.40;;;;;;;;;;4465824;32;20513;-56
2021/12/24 08:46:18;;;;;;;82.90;46.70;;;;;;;;;;4451673;32;20267;-56
2021/12/24 08:48:44;;;;;;;83.27;45.03;;;;;;;;;;4458429;32;20262;-58
2021/12/24 08:51:11;;;;;;;109.57;65.00;;;;;;;;;;4458326;32;20322;-57
2021/12/24 08:53:39;;;;;;;132.77;71.23;;;;;;;;;;4457967;32;20428;-56
2021/12/24 08:56:05;;;;;;;140.50;71.03;;;;;;;;;;4461389;32;20249;-56
2021/12/24 08:58:32;;;;;;;150.53;78.07;;;;;;;;;;4453565;32;20549;-56
2021/12/24 09:00:58;;;;;;;185.37;90.20;;;;;;;;;;4456383;32;20299;-55
2021/12/24 09:03:24;;;;;;;181.57;92.60;;;;;;;;;;4454107;32;20258;-55
2021/12/24 09:05:49;;;;;;;137.87;76.53;;;;;;;;;;4452677;32;20240;-55
2021/12/24 09:08:15;;;;;;;145.70;77.67;;;;;;;;;;4460926;32;20265;-56
2021/12/24 09:10:40;;;;;;;164.83;80.27;;;;;;;;;;4450025;32;20652;-55
2021/12/24 09:13:06;;;;;;;159.73;79.43;;;;;;;;;;4460687;32;20246;-55
2021/12/24 09:15:31;;;;;;;130.97;74.33;;;;;;;;;;4457258;32;20763;-56
2021/12/24 09:17:59;;;;;;;126.83;68.40;;;;;;;;;;4454930;32;20256;-55
2021/12/24 09:20:29;;;;;;;133.47;72.73;;;;;;;;;;4455815;32;20327;-56
2021/12/24 09:22:55;;;;;;;121.30;65.73;;;;;;;;;;4455918;32;20628;-54
2021/12/24 09:25:23;;;;;;;137.77;65.47;;;;;;;;;;4462447;32;20644;-55
2021/12/24 09:27:49;;;;;;;112.27;61.43;;;;;;;;;;4464815;32;20669;-55
2021/12/24 09:30:14;;;;;;;116.60;59.10;;;;;;;;;;4464717;32;20688;-55
2021/12/24 09:32:40;;;;;;;101.83;54.77;;;;;;;;;;4461360;32;20208;-55
2021/12/24 09:35:07;;;;;;;119.90;60.37;;;;;;;;;;4454095;32;20652;-55
2021/12/24 09:37:33;;;;;;;120.53;63.17;;;;;;;;;;4451157;32;20470;-54
2021/12/24 09:39:58;;;;;;;121.77;64.23;;;;;;;;;;4452063;32;20240;-55
2021/12/24 09:42:25;;;;;;;71.07;39.77;;;;;;;;;;4447119;32;20236;-55
2021/12/24 09:44:50;;;;;;;96.47;49.90;;;;;;;;;;4454996;32;20216;-55
2021/12/24 09:47:16;;;;;;;111.77;55.63;;;;;;;;;;4456260;32;20312;-55
2021/12/24 09:49:41;;;;;;;97.83;53.90;;;;;;;;;;4457963;32;20540;-55
2021/12/24 09:52:07;;;;;;;94.27;50.60;;;;;;;;;;4462802;32;20234;-55
2021/12/24 09:54:32;;;;;;;91.27;43.17;;;;;;;;;;4451300;32;20710;-56
2021/12/24 09:57:01;;;;;;;57.53;32.30;;;;;;;;;;4449668;32;20314;-56
2021/12/24 09:59:27;;;;;;;74.97;38.97;;;;;;;;;;4452227;32;20227;-55
2021/12/24 10:01:59;;;;;;;78.83;40.30;;;;;;;;;;4463439;32;20372;-55
2021/12/24 10:04:29;;;;;;;99.83;51.43;;;;;;;;;;4457482;32;20216;-55
2021/12/24 10:07:17;;;;;;;103.67;52.47;;;;;;;;;;4458059;32;20227;-55
2021/12/24 10:09:46;;;;;;;97.67;54.60;;;;;;;;;;4459482;32;20371;-55
2021/12/24 10:12:14;;;;;;;109.57;61.27;;;;;;;;;;4459598;32;20711;-56
2021/12/24 10:14:46;;;;;;;107.10;58.80;;;;;;;;;;4454899;32;20234;-55
2021/12/24 10:17:23;;;;;;;102.57;53.43;;;;;;;;;;4462480;32;20663;-55
2021/12/24 10:19:58;;;;;;;125.17;67.37;;;;;;;;;;4452975;32;20679;-58
2021/12/24 10:22:23;;;;;;;108.90;57.60;;;;;;;;;;4451351;32;20575;-54
2021/12/24 10:25:10;;;;;;;76.43;40.10;;;;;;;;;;4464071;32;20364;-55
2021/12/24 10:27:38;;;;;;;81.03;41.17;;;;;;;;;;4443040;32;20212;-55
2021/12/24 10:30:22;;;;;;;63.30;37.37;;;;;;;;;;4449732;32;20224;-55
2021/12/24 10:32:49;;;;;;;69.80;38.70;;;;;;;;;;4452772;32;20387;-55
2021/12/24 10:35:21;;;;;;;98.40;56.00;;;;;;;;;;4446724;32;20256;-55
2021/12/24 10:38:06;;;;;;;110.03;60.87;;;;;;;;;;4449999;32;20646;-56
2021/12/24 10:40:32;;;;;;;112.60;61.33;;;;;;;;;;4452413;32;20783;-55
2021/12/24 10:42:57;;;;;;;132.00;64.63;;;;;;;;;;4447756;32;20268;-55
2021/12/24 10:45:23;;;;;;;136.03;72.07;;;;;;;;;;4451393;32;20278;-55
2021/12/24 10:47:48;;;;;;;126.33;64.20;;;;;;;;;;4455211;32;20236;-57
2021/12/24 10:55:24;;;;;;;126.17;68.37;;;;;;;;;;4451329;32;20686;-59
2021/12/24 10:57:51;;;;;;;122.40;60.87;;;;;;;;;;4451293;32;20659;-57
2021/12/24 11:00:19;;;;;;;129.80;62.40;;;;;;;;;;4450193;32;20236;-58
2021/12/24 11:02:55;;;;;;;121.20;63.60;;;;;;;;;;4453439;32;20204;-58
2021/12/24 11:05:30;;;;;;;113.60;65.10;;;;;;;;;;4451840;32;20398;-57
2021/12/24 11:08:00;;;;;;;125.37;70.20;;;;;;;;;;4460759;32;20267;-57
2021/12/24 11:10:29;;;;;;;113.37;66.13;;;;;;;;;;4462743;32;20645;-58
2021/12/24 11:13:07;;;;;;;136.67;84.33;;;;;;;;;;4459218;32;20246;-57
2021/12/24 11:15:39;;;;;;;130.27;70.87;;;;;;;;;;4448168;32;20742;-58
2021/12/24 11:18:18;;;;;;;115.57;66.03;;;;;;;;;;4448466;32;20205;-57
2021/12/24 11:20:45;;;;;;;117.43;64.83;;;;;;;;;;4457361;32;20644;-57
2021/12/24 11:23:13;;;;;;;129.37;66.90;;;;;;;;;;4455332;32;20232;-57
2021/12/24 11:25:41;;;;;;;110.00;62.20;;;;;;;;;;4458367;32;20351;-56
2021/12/24 11:28:08;;;;;;;116.93;65.40;;;;;;;;;;4454242;32;20286;-57
2021/12/24 11:30:36;;;;;;;119.63;64.07;;;;;;;;;;4450173;32;20260;-57
2021/12/24 11:33:02;;;;;;;111.60;62.23;;;;;;;;;;4462152;32;20300;-58
2021/12/24 11:35:29;;;;;;;114.37;64.87;;;;;;;;;;4456354;32;20208;-58
2021/12/24 11:37:55;;;;;;;114.07;63.00;;;;;;;;;;4459694;32;20230;-57
2021/12/24 11:40:23;;;;;;;106.13;62.37;;;;;;;;;;4455938;32;20517;-56
2021/12/24 11:42:57;;;;;;;117.20;62.70;;;;;;;;;;4457685;32;20215;-56
2021/12/24 11:45:24;;;;;;;104.93;64.53;;;;;;;;;;4459365;32;20295;-57
2021/12/24 11:47:51;;;;;;;111.53;65.03;;;;;;;;;;4452136;32;20689;-56
2021/12/24 11:50:17;;;;;;;112.33;62.87;;;;;;;;;;4460048;32;20703;-56
2021/12/24 11:52:46;;;;;;;112.83;62.90;;;;;;;;;;4457030;32;20325;-56
2021/12/24 11:55:12;;;;;;;109.03;62.50;;;;;;;;;;4464877;32;20291;-56
2021/12/24 11:57:53;;;;;;;110.33;61.80;;;;;;;;;;4460211;32;20641;-57
2021/12/24 12:00:25;;;;;;;109.57;59.10;;;;;;;;;;4453194;32;20534;-57
2021/12/24 12:02:51;;;;;;;98.60;57.87;;;;;;;;;;4457702;32;20220;-56
2021/12/24 12:05:22;;;;;;;118.27;60.57;;;;;;;;;;4458079;32;20255;-56
2021/12/24 12:07:50;;;;;;;107.83;60.57;;;;;;;;;;4460770;32;20526;-56
2021/12/24 12:11:08;;;;;;;115.93;62.27;;;;;;;;;;4451261;32;20243;-57
2021/12/24 12:13:41;;;;;;;150.93;78.10;;;;;;;;;;4416404;32;20307;-59
2021/12/24 12:16:09;;;;;;;111.83;64.30;;;;;;;;;;4459759;32;20703;-57
2021/12/24 12:18:48;;;;;;;140.67;65.13;;;;;;;;;;4455039;32;20416;-57
2021/12/24 12:21:35;;;;;;;117.70;62.40;;;;;;;;;;4463332;32;20628;-57
2021/12/24 12:24:57;;;;;;;120.93;67.87;;;;;;;;;;4456628;32;20659;-56
2021/12/24 12:26:52;;;;;;;120.20;68.03;;;;;;;;;;4456771;32;20315;-56
2021/12/24 12:29:28;;;;;;;136.37;73.27;;;;;;;;;;4453823;32;20271;-56
2021/12/24 12:32:26;;;;;;;132.93;71.80;;;;;;;;;;4460252;32;20756;-56
2021/12/24 12:34:56;;;;;;;130.50;72.53;;;;;;;;;;4454248;32;20220;-56
2021/12/24 12:37:23;;;;;;;122.63;69.10;;;;;;;;;;4457441;32;20684;-56
2021/12/24 12:40:02;;;;;;;136.60;73.00;;;;;;;;;;4458295;32;20339;-59
2021/12/24 12:42:50;;;;;;;165.07;81.87;;;;;;;;;;4447035;32;20309;-58
2021/12/24 12:45:26;;;;;;;178.43;93.90;;;;;;;;;;4456983;32;20268;-58
2021/12/24 12:47:53;;;;;;;146.00;82.07;;;;;;;;;;4459657;32;20216;-58
2021/12/24 12:50:19;;;;;;;168.30;88.97;;;;;;;;;;4456030;32;20794;-57
2021/12/24 12:52:45;;;;;;;121.03;71.30;;;;;;;;;;4451654;32;20204;-57
2021/12/24 12:55:33;;;;;;;118.67;64.87;;;;;;;;;;4455411;32;20288;-57
2021/12/24 12:58:21;;;;;;;59.17;35.10;;;;;;;;;;4462069;32;20212;-58
2021/12/24 13:01:05;;;;;;;63.50;39.47;;;;;;;;;;4461327;32;20258;-58
2021/12/24 13:03:54;;;;;;;78.77;42.57;;;;;;;;;;4461242;32;20683;-58
2021/12/24 13:06:20;;;;;;;93.70;55.97;;;;;;;;;;4450115;32;20251;-58
2021/12/24 13:08:46;;;;;;;76.83;43.90;;;;;;;;;;4461619;32;20285;-58
2021/12/24 13:11:17;;;;;;;80.20;39.67;;;;;;;;;;4462889;32;20327;-58
2021/12/24 13:13:54;;;;;;;79.70;43.47;;;;;;;;;;4448736;32;20240;-57
2021/12/24 13:16:34;;;;;;;81.53;47.47;;;;;;;;;;4450485;32;20265;-57
2021/12/24 13:19:26;;;;;;;90.50;49.80;;;;;;;;;;4462016;32;20236;-58
2021/12/24 13:24:50;;;;;;;97.87;53.03;;;;;;;;;;4456562;32;20705;-58
2021/12/24 13:27:17;;;;;;;111.53;53.37;;;;;;;;;;4457378;32;20299;-58
2021/12/24 13:29:43;;;;;;;97.57;50.60;;;;;;;;;;4460359;32;20319;-57
2021/12/24 13:32:09;;;;;;;87.47;48.50;;;;;;;;;;4462418;32;20734;-57
2021/12/24 13:34:36;;;;;;;98.83;49.43;;;;;;;;;;4459601;32;20307;-57
2021/12/24 13:37:09;;;;;;;85.77;43.87;;;;;;;;;;4455683;32;20532;-57
2021/12/24 13:39:35;;;;;;;49.43;30.07;;;;;;;;;;4462290;32;20224;-59
2021/12/24 13:42:07;;;;;;;102.40;50.50;;;;;;;;;;4449886;32;20590;-56
2021/12/24 13:44:34;;;;;;;99.50;48.07;;;;;;;;;;4451419;32;20342;-57
2021/12/24 13:50:23;;;;;;;117.37;55.10;;;;;;;;;;4462546;32;20687;-57
2021/12/24 13:55:39;;;;;;;74.20;37.47;;;;;;;;;;4463044;32;20306;-57
2021/12/24 13:58:11;;;;;;;76.83;42.37;;;;;;;;;;4463765;32;20196;-56
2021/12/24 14:00:40;;;;;;;78.33;44.00;;;;;;;;;;4463669;32;20540;-58
2021/12/24 14:03:09;;;;;;;82.63;46.70;;;;;;;;;;4463816;32;20246;-58
2021/12/24 14:05:49;;;;;;;73.10;39.50;;;;;;;;;;4462576;32;20578;-57
2021/12/24 14:08:21;;;;;;;87.43;44.77;;;;;;;;;;4461013;32;20256;-58
2021/12/24 14:10:48;;;;;;;107.10;56.93;;;;;;;;;;4462210;32;20608;-58
2021/12/24 14:13:28;;;;;;;123.53;68.37;;;;;;;;;;4459717;32;20387;-57
2021/12/24 14:16:14;;;;;;;161.50;74.37;;;;;;;;;;4462765;32;20251;-58
2021/12/24 14:24:13;;;;;;;179.37;86.47;;;;;;;;;;4462667;32;20636;-57
2021/12/24 14:27:06;;;;;;;173.63;86.97;;;;;;;;;;4453448;32;20326;-57
2021/12/24 14:29:36;;;;;;;161.67;86.60;;;;;;;;;;4451882;32;20805;-57
2021/12/24 14:32:09;;;;;;;184.60;96.77;;;;;;;;;;4454560;32;20463;-57
2021/12/24 14:34:51;;;;;;;179.67;92.93;;;;;;;;;;4451777;32;20580;-57
2021/12/24 14:37:27;;;;;;;155.83;88.27;;;;;;;;;;4460487;32;20391;-57
2021/12/24 14:39:55;;;;;;;227.33;109.27;;;;;;;;;;4449951;32;20243;-58
2021/12/24 14:42:37;;;;;;;191.07;95.80;;;;;;;;;;4455723;32;20221;-58
2021/12/24 14:45:23;;;;;;;171.73;88.77;;;;;;;;;;4462184;32;20370;-58
2021/12/24 14:48:17;;;;;;;190.97;101.17;;;;;;;;;;4443936;32;20255;-58
2021/12/24 14:50:49;;;;;;;224.23;108.20;;;;;;;;;;4447753;32;20307;-58
2021/12/24 14:53:45;;;;;;;226.07;110.47;;;;;;;;;;4446479;32;20248;-58
2021/12/24 14:56:13;;;;;;;222.83;107.90;;;;;;;;;;4462156;32;20224;-58
2021/12/24 14:58:45;;;;;;;254.60;124.03;;;;;;;;;;4456971;32;20216;-58
2021/12/24 15:01:26;;;;;;;282.93;132.03;;;;;;;;;;4446313;32;20252;-56
2021/12/24 15:03:54;;;;;;;232.47;123.33;;;;;;;;;;4451267;32;20297;-57
2021/12/24 15:06:43;;;;;;;214.77;109.40;;;;;;;;;;4451194;32;20271;-57
2021/12/24 15:09:11;;;;;;;226.07;111.13;;;;;;;;;;4441378;32;20244;-57
2021/12/24 15:11:37;;;;;;;381.67;196.23;;;;;;;;;;4462246;32;20360;-58
2021/12/24 15:14:06;;;;;;;316.57;153.77;;;;;;;;;;4460305;32;20319;-58
2021/12/24 15:16:35;;;;;;;266.97;138.60;;;;;;;;;;4452921;32;20661;-57
2021/12/24 15:19:02;;;;;;;237.20;121.20;;;;;;;;;;4454987;32;20247;-57
2021/12/24 15:21:30;;;;;;;207.43;110.83;;;;;;;;;;4451942;32;20240;-58
2021/12/24 15:23:58;;;;;;;232.33;118.07;;;;;;;;;;4445638;32;20225;-58
2021/12/24 15:26:24;;;;;;;297.17;150.23;;;;;;;;;;4453779;32;20398;-58
2021/12/24 15:28:52;;;;;;;256.50;133.03;;;;;;;;;;4454093;32;20410;-59
2021/12/24 15:31:20;;;;;;;343.37;168.63;;;;;;;;;;4457171;32;20232;-58
2021/12/24 15:33:45;;;;;;;315.90;155.03;;;;;;;;;;4458884;32;20373;-59
2021/12/24 15:36:12;;;;;;;291.47;142.90;;;;;;;;;;4455534;32;20241;-59
2021/12/24 15:38:39;;;;;;;290.00;142.87;;;;;;;;;;4454639;32;20679;-58
2021/12/24 15:41:06;;;;;;;305.97;148.17;;;;;;;;;;4462298;32;20513;-58
2021/12/24 15:43:32;;;;;;;293.33;148.43;;;;;;;;;;4452390;32;20239;-60
2021/12/24 15:45:57;;;;;;;306.20;149.80;;;;;;;;;;4455722;32;20729;-58
2021/12/24 15:48:24;;;;;;;340.17;168.50;;;;;;;;;;4450555;32;20240;-58
2021/12/24 15:50:51;;;;;;;343.47;172.93;;;;;;;;;;4451376;32;20605;-59
2021/12/24 15:53:17;;;;;;;327.53;170.83;;;;;;;;;;4446004;32;20292;-58
2021/12/24 15:55:44;;;;;;;347.97;175.07;;;;;;;;;;4457289;32;20402;-59
2021/12/24 15:58:10;;;;;;;315.63;155.70;;;;;;;;;;4448829;32;20319;-58
2021/12/24 16:00:43;;;;;;;287.43;142.90;;;;;;;;;;4460664;32;20223;-58
2021/12/24 16:03:10;;;;;;;279.70;145.63;;;;;;;;;;4450908;32;20233;-58
2021/12/24 16:05:36;;;;;;;331.80;157.53;;;;;;;;;;4460477;32;20664;-59
2021/12/24 16:08:02;;;;;;;397.80;193.50;;;;;;;;;;4457281;32;20305;-59
2021/12/24 16:10:29;;;;;;;394.50;189.33;;;;;;;;;;4447103;32;20248;-58
2021/12/24 16:12:57;;;;;;;419.57;202.03;;;;;;;;;;4452106;32;20310;-59
2021/12/24 16:15:23;;;;;;;365.23;175.33;;;;;;;;;;4446631;32;20461;-58